createdAt,value
2023-03-30T00:01:35.485Z,9.70
2023-03-30T00:04:03.150Z,9.70
2023-03-30T00:06:30.762Z,9.50
2023-03-30T00:08:59.897Z,9.60
2023-03-30T00:11:27.817Z,9.70
2023-03-30T00:13:55.763Z,9.40
2023-03-30T00:16:23.589Z,9.70
2023-03-30T00:18:51.286Z,9.40
2023-03-30T00:21:20.825Z,9.70
2023-03-30T00:23:48.923Z,9.70
2023-03-30T00:26:17.601Z,9.70
2023-03-30T00:28:46.119Z,9.60
2023-03-30T00:31:13.918Z,9.40
2023-03-30T00:33:47.145Z,9.20
2023-03-30T00:36:16.623Z,9.20
2023-03-30T00:38:45.755Z,9.20
2023-03-30T00:41:13.674Z,9.40
2023-03-30T00:44:01.019Z,9.20
2023-03-30T00:46:31.321Z,9.60
2023-03-30T00:49:10.381Z,9.50
2023-03-30T00:51:40.673Z,9.60
2023-03-30T00:54:12.882Z,9.30
2023-03-30T00:56:40.864Z,9.40
2023-03-30T00:59:10.407Z,8.90
2023-03-30T01:01:40.342Z,9.10
2023-03-30T01:04:10.166Z,8.70
2023-03-30T01:06:40.319Z,9.00
2023-03-30T01:09:08.621Z,8.70
2023-03-30T01:11:36.625Z,9.00
2023-03-30T01:14:07.055Z,8.90
2023-03-30T01:16:55.898Z,8.60
2023-03-30T01:20:12.566Z,8.60
2023-03-30T01:23:02.141Z,8.90
2023-03-30T01:25:45.456Z,9.00
2023-03-30T01:28:25.552Z,8.80
2023-03-30T01:31:25.801Z,9.10
2023-03-30T01:34:12.195Z,9.00
2023-03-30T01:36:59.504Z,8.70
2023-03-30T01:39:29.735Z,8.70
2023-03-30T01:42:17.201Z,9.10
2023-03-30T01:44:48.152Z,8.90
2023-03-30T01:47:50.673Z,8.90
2023-03-30T01:50:49.308Z,8.80
2023-03-30T01:53:40.740Z,9.00
2023-03-30T01:56:12.219Z,8.60
2023-03-30T01:59:14.907Z,8.50
2023-03-30T02:01:50.227Z,8.30
2023-03-30T02:04:21.898Z,8.20
2023-03-30T02:06:57.969Z,8.60
2023-03-30T02:09:26.808Z,8.20
2023-03-30T02:11:55.480Z,8.30
2023-03-30T02:14:27.439Z,8.50
2023-03-30T02:17:04.433Z,8.10
2023-03-30T02:19:32.025Z,8.10
2023-03-30T02:22:01.196Z,8.30
2023-03-30T02:24:31.563Z,8.10
2023-03-30T02:27:02.216Z,7.60
2023-03-30T02:29:31.723Z,7.60
2023-03-30T02:32:01.647Z,7.70
2023-03-30T02:35:28.384Z,8.10
2023-03-30T02:38:01.727Z,8.20
2023-03-30T02:40:41.205Z,7.70
2023-03-30T02:43:24.677Z,7.70
2023-03-30T02:46:10.871Z,7.50
2023-03-30T02:48:53.744Z,7.50
2023-03-30T02:51:40.904Z,7.80
2023-03-30T02:54:31.110Z,7.50
2023-03-30T02:57:26.722Z,7.50
2023-03-30T03:00:13.144Z,7.60
2023-03-30T03:02:46.013Z,7.70
2023-03-30T03:05:27.045Z,7.60
2023-03-30T03:08:09.269Z,7.30
2023-03-30T03:10:37.328Z,7.20
2023-03-30T03:13:06.008Z,7.70
2023-03-30T03:15:33.652Z,7.30
2023-03-30T03:18:07.616Z,7.70
2023-03-30T03:20:36.596Z,7.50
2023-03-30T03:23:04.671Z,7.50
2023-03-30T03:25:39.822Z,7.30
2023-03-30T03:28:08.878Z,7.30
2023-03-30T03:30:41.896Z,7.10
2023-03-30T03:33:15.690Z,7.10
2023-03-30T03:35:48.921Z,7.50
2023-03-30T03:38:16.378Z,7.60
2023-03-30T03:40:43.917Z,7.20
2023-03-30T03:43:11.420Z,7.70
2023-03-30T03:45:38.933Z,7.30
2023-03-30T03:48:06.562Z,7.00
2023-03-30T03:50:45.017Z,7.30
2023-03-30T03:53:13.274Z,6.90
2023-03-30T03:55:41.618Z,6.80
2023-03-30T03:58:09.200Z,7.00
2023-03-30T04:00:36.917Z,6.70
2023-03-30T04:03:05.172Z,6.70
2023-03-30T04:05:32.693Z,7.00
2023-03-30T04:08:00.333Z,6.60
2023-03-30T04:10:28.209Z,6.60
2023-03-30T04:13:09.169Z,6.60
2023-03-30T04:15:55.445Z,6.70
2023-03-30T04:18:46.586Z,6.50
2023-03-30T04:21:53.011Z,6.70
2023-03-30T04:24:35.906Z,6.40
2023-03-30T04:27:44.109Z,6.30
2023-03-30T04:30:30.570Z,6.80
2023-03-30T04:33:17.098Z,6.90
2023-03-30T04:36:17.973Z,6.30
2023-03-30T04:39:18.350Z,6.70
2023-03-30T04:42:04.319Z,6.60
2023-03-30T04:44:49.274Z,6.80
2023-03-30T04:47:49.007Z,6.60
2023-03-30T04:50:38.048Z,6.70
2023-03-30T04:53:23.959Z,6.80
2023-03-30T04:55:52.013Z,6.60
2023-03-30T04:58:48.653Z,6.30
2023-03-30T05:01:48.341Z,6.70
2023-03-30T05:04:32.758Z,6.60
2023-03-30T05:07:34.787Z,6.60
2023-03-30T05:10:18.254Z,6.30
2023-03-30T05:13:03.940Z,6.70
2023-03-30T05:15:37.406Z,6.60
2023-03-30T05:18:23.321Z,6.50
2023-03-30T05:21:09.139Z,6.30
2023-03-30T05:24:08.931Z,6.20
2023-03-30T05:26:55.084Z,6.50
2023-03-30T05:29:48.339Z,6.50
2023-03-30T05:32:34.078Z,6.30
2023-03-30T05:35:24.742Z,6.30
2023-03-30T05:38:05.211Z,6.10
2023-03-30T05:40:54.011Z,6.40
2023-03-30T05:43:49.012Z,6.10
2023-03-30T05:46:45.026Z,6.50
2023-03-30T05:49:31.661Z,6.30
2023-03-30T05:52:13.254Z,6.40
2023-03-30T05:54:55.933Z,6.90
2023-03-30T05:57:34.043Z,6.60
2023-03-30T06:00:25.902Z,6.60
2023-03-30T06:03:05.491Z,6.90
2023-03-30T06:05:39.249Z,6.80
2023-03-30T06:08:08.208Z,6.50
2023-03-30T06:10:36.926Z,6.80
2023-03-30T06:13:06.067Z,6.50
2023-03-30T06:15:42.294Z,6.40
2023-03-30T06:18:14.081Z,6.60
2023-03-30T06:20:50.559Z,6.70
2023-03-30T06:23:18.634Z,6.70
2023-03-30T06:25:52.636Z,6.80
2023-03-30T06:28:23.566Z,6.30
2023-03-30T06:30:51.559Z,6.60
2023-03-30T06:33:21.995Z,6.70
2023-03-30T06:35:59.333Z,6.40
2023-03-30T06:38:27.717Z,6.60
2023-03-30T06:40:57.059Z,6.40
2023-03-30T06:43:26.667Z,6.50
2023-03-30T06:46:15.129Z,6.70
2023-03-30T06:48:48.480Z,6.80
2023-03-30T06:51:37.856Z,6.50
2023-03-30T06:54:07.572Z,6.60
2023-03-30T06:56:35.067Z,7.00
2023-03-30T06:59:07.984Z,6.90
2023-03-30T07:01:55.643Z,7.10
2023-03-30T07:07:04.947Z,7.20
2023-03-30T07:09:32.606Z,7.10
2023-03-30T07:12:00.275Z,7.20
2023-03-30T07:14:27.899Z,7.60
2023-03-30T07:16:55.506Z,7.60
2023-03-30T07:19:23.683Z,7.70
2023-03-30T07:24:21.522Z,7.50
2023-03-30T07:26:49.092Z,7.50
2023-03-30T07:29:16.737Z,7.50
2023-03-30T07:31:48.019Z,7.60
2023-03-30T07:34:17.346Z,7.60
2023-03-30T07:36:50.904Z,7.70
2023-03-30T07:39:18.781Z,7.70
2023-03-30T07:41:48.335Z,8.00
2023-03-30T07:44:16.122Z,7.80
2023-03-30T07:46:43.954Z,8.20
2023-03-30T07:49:17.597Z,8.10
2023-03-30T07:51:45.304Z,8.20
2023-03-30T07:54:21.731Z,8.10
2023-03-30T07:57:12.297Z,8.40
2023-03-30T07:59:40.238Z,8.30
2023-03-30T08:02:18.161Z,8.20
2023-03-30T08:04:52.967Z,8.50
2023-03-30T08:07:35.500Z,8.60
2023-03-30T08:10:13.027Z,8.70
2023-03-30T08:12:41.183Z,8.30
2023-03-30T08:15:09.324Z,8.70
2023-03-30T08:17:37.297Z,8.50
2023-03-30T08:20:10.789Z,8.60
2023-03-30T08:22:38.667Z,8.70
2023-03-30T08:25:06.403Z,8.90
2023-03-30T08:27:34.237Z,8.80
2023-03-30T08:30:02.138Z,8.70
2023-03-30T08:32:29.672Z,8.80
2023-03-30T08:34:57.260Z,9.10
2023-03-30T08:37:25.104Z,8.80
2023-03-30T08:39:52.973Z,8.90
2023-03-30T08:42:38.244Z,9.20
2023-03-30T08:45:10.684Z,9.00
2023-03-30T08:47:42.825Z,9.30
2023-03-30T08:50:19.149Z,9.00
2023-03-30T08:52:46.984Z,9.30
2023-03-30T08:55:45.152Z,9.30
2023-03-30T08:58:27.236Z,9.00
2023-03-30T09:01:20.060Z,9.00
2023-03-30T09:04:17.204Z,9.20
2023-03-30T09:06:47.510Z,9.10
2023-03-30T09:09:20.897Z,9.30
2023-03-30T09:12:11.445Z,9.20
2023-03-30T09:14:49.872Z,9.40
2023-03-30T09:17:22.810Z,9.40
2023-03-30T09:20:13.083Z,9.40
2023-03-30T09:22:43.550Z,9.50
2023-03-30T09:25:24.193Z,9.70
2023-03-30T09:28:03.393Z,9.80
2023-03-30T09:31:00.659Z,9.70
2023-03-30T09:33:53.781Z,9.70
2023-03-30T09:36:31.702Z,10.00
2023-03-30T09:38:59.153Z,10.00
2023-03-30T09:42:04.755Z,9.80
2023-03-30T09:44:56.303Z,10.10
2023-03-30T09:47:29.726Z,10.10
2023-03-30T09:50:02.460Z,10.10
2023-03-30T09:52:40.155Z,10.30
2023-03-30T09:55:22.617Z,10.20
2023-03-30T09:57:53.859Z,10.50
2023-03-30T10:00:33.055Z,10.60
2023-03-30T10:03:05.666Z,10.60
2023-03-30T10:05:36.498Z,10.50
2023-03-30T10:08:06.510Z,10.60
2023-03-30T10:10:40.244Z,10.70
2023-03-30T10:13:07.724Z,10.70
2023-03-30T10:15:39.519Z,10.80
2023-03-30T10:18:46.910Z,10.70
2023-03-30T10:21:15.069Z,10.70
2023-03-30T10:23:45.942Z,10.80
2023-03-30T10:26:16.165Z,10.90
2023-03-30T10:29:08.056Z,10.80
2023-03-30T10:31:38.560Z,11.00
2023-03-30T10:34:16.704Z,11.30
2023-03-30T10:36:49.296Z,11.60
2023-03-30T10:39:30.206Z,11.60
2023-03-30T10:42:00.603Z,11.70
2023-03-30T10:44:36.936Z,11.70
2023-03-30T10:47:31.385Z,11.70
2023-03-30T10:50:01.635Z,11.90
2023-03-30T10:52:59.162Z,12.10
2023-03-30T10:55:36.308Z,12.10
2023-03-30T10:58:19.482Z,12.40
2023-03-30T11:00:53.010Z,12.60
2023-03-30T11:03:27.496Z,12.50
2023-03-30T11:06:17.026Z,12.60
2023-03-30T11:08:50.981Z,12.40
2023-03-30T11:11:36.694Z,12.60
2023-03-30T11:14:12.608Z,12.80
2023-03-30T11:16:53.838Z,13.10
2023-03-30T11:19:56.546Z,13.30
2023-03-30T11:22:42.118Z,13.60
2023-03-30T11:25:46.462Z,13.80
2023-03-30T11:28:48.205Z,14.00
2023-03-30T11:31:56.238Z,14.30
2023-03-30T11:34:35.974Z,14.60
2023-03-30T11:37:42.568Z,14.60
2023-03-30T11:40:27.371Z,14.60
2023-03-30T11:42:55.832Z,14.80
2023-03-30T11:46:03.251Z,15.10
2023-03-30T11:48:52.040Z,15.10
2023-03-30T11:51:43.542Z,15.00
2023-03-30T11:54:36.103Z,14.80
2023-03-30T11:57:03.578Z,14.40
2023-03-30T11:59:38.902Z,14.10
2023-03-30T12:02:31.072Z,13.90
2023-03-30T12:05:04.371Z,13.80
2023-03-30T12:07:47.001Z,13.60
2023-03-30T12:10:24.396Z,13.70
2023-03-30T12:12:54.076Z,13.70
2023-03-30T12:15:33.074Z,13.70
2023-03-30T12:18:15.418Z,13.70
2023-03-30T12:21:04.139Z,13.80
2023-03-30T12:24:06.910Z,13.70
2023-03-30T12:26:35.303Z,13.70
2023-03-30T12:32:03.503Z,13.60
2023-03-30T12:34:37.303Z,13.60
2023-03-30T12:37:13.321Z,13.60
2023-03-30T12:39:48.974Z,13.50
2023-03-30T12:42:36.876Z,13.50
2023-03-30T12:45:33.920Z,13.40
2023-03-30T12:48:16.387Z,13.40
2023-03-30T12:51:07.754Z,13.40
2023-03-30T12:54:03.032Z,13.50
2023-03-30T12:57:05.680Z,13.50
2023-03-30T12:59:48.263Z,13.50
2023-03-30T13:02:55.113Z,13.60
2023-03-30T13:05:32.154Z,13.60
2023-03-30T13:08:20.361Z,13.60
2023-03-30T13:10:48.150Z,13.70
2023-03-30T13:13:42.950Z,13.80
2023-03-30T13:16:12.892Z,14.00
2023-03-30T13:18:54.094Z,14.10
2023-03-30T13:21:26.096Z,14.10
2023-03-30T13:24:21.398Z,13.90
2023-03-30T13:26:50.397Z,13.80
2023-03-30T13:29:18.776Z,13.60
2023-03-30T13:32:27.703Z,13.70
2023-03-30T13:35:07.257Z,13.60
2023-03-30T13:37:41.192Z,13.70
2023-03-30T13:40:31.269Z,14.00
2023-03-30T13:43:10.305Z,14.20
2023-03-30T13:45:46.576Z,14.40
2023-03-30T13:48:28.016Z,14.60
2023-03-30T13:50:58.996Z,14.80
2023-03-30T13:53:31.151Z,14.70
2023-03-30T13:55:58.938Z,14.60
2023-03-30T13:58:33.410Z,14.50
2023-03-30T14:01:02.514Z,14.40
2023-03-30T14:03:38.161Z,14.30
2023-03-30T14:06:15.333Z,14.10
2023-03-30T14:08:46.386Z,13.90
2023-03-30T14:11:20.428Z,13.60
2023-03-30T14:13:52.281Z,13.40
2023-03-30T14:16:26.734Z,13.30
2023-03-30T14:19:26.469Z,13.30
2023-03-30T14:22:19.694Z,13.40
2023-03-30T14:25:05.536Z,13.40
2023-03-30T14:27:36.582Z,13.40
2023-03-30T14:30:23.225Z,13.50
2023-03-30T14:33:13.292Z,13.50
2023-03-30T14:35:50.073Z,13.30
2023-03-30T14:38:22.153Z,13.30
2023-03-30T14:40:50.519Z,13.20
2023-03-30T14:43:24.690Z,13.20
2023-03-30T14:45:54.328Z,13.20
2023-03-30T14:48:36.253Z,13.20
2023-03-30T14:51:09.564Z,13.20
2023-03-30T14:53:37.398Z,13.20
2023-03-30T14:56:07.070Z,13.20
2023-03-30T14:58:34.853Z,13.30
2023-03-30T15:01:09.602Z,13.30
2023-03-30T15:03:38.401Z,13.50
2023-03-30T15:06:07.912Z,13.60
2023-03-30T15:08:39.865Z,13.70
2023-03-30T15:11:14.977Z,13.80
2023-03-30T15:13:50.355Z,13.90
2023-03-30T15:16:25.509Z,14.00
2023-03-30T15:18:55.728Z,14.10
2023-03-30T15:21:23.245Z,14.10
2023-03-30T15:23:51.237Z,14.10
2023-03-30T15:26:19.501Z,14.10
2023-03-30T15:28:52.866Z,14.20
2023-03-30T15:31:21.006Z,14.40
2023-03-30T15:33:54.168Z,14.40
2023-03-30T15:36:25.333Z,14.30
2023-03-30T15:38:53.852Z,14.20
2023-03-30T15:41:24.767Z,14.20
2023-03-30T15:43:59.356Z,14.20
2023-03-30T15:46:28.248Z,14.20
2023-03-30T15:48:57.753Z,14.30
2023-03-30T15:51:26.673Z,14.30
2023-03-30T15:54:22.130Z,14.40
2023-03-30T15:57:10.057Z,14.50
2023-03-30T15:59:44.083Z,14.50
2023-03-30T16:02:31.381Z,14.60
2023-03-30T16:05:00.837Z,14.60
2023-03-30T16:07:31.128Z,14.50
2023-03-30T16:09:58.605Z,14.50
2023-03-30T16:12:28.543Z,14.40
2023-03-30T16:14:56.899Z,14.40
2023-03-30T16:17:24.444Z,14.40
2023-03-30T16:19:52.016Z,14.40
2023-03-30T16:22:19.407Z,14.40
2023-03-30T16:24:48.344Z,14.50
2023-03-30T16:27:15.897Z,14.40
2023-03-30T16:29:43.470Z,14.50
2023-03-30T16:32:10.950Z,14.40
2023-03-30T16:34:39.058Z,14.50
2023-03-30T16:37:08.844Z,14.40
2023-03-30T16:39:36.682Z,14.40
2023-03-30T16:42:04.211Z,14.40
2023-03-30T16:44:31.692Z,14.40
2023-03-30T16:46:59.185Z,14.40
2023-03-30T16:49:26.890Z,14.40
2023-03-30T16:51:57.656Z,14.30
2023-03-30T16:54:31.520Z,14.20
2023-03-30T16:57:00.969Z,14.20
2023-03-30T16:59:30.688Z,14.10
2023-03-30T17:01:59.560Z,14.00
2023-03-30T17:04:27.309Z,14.00
2023-03-30T17:06:55.147Z,14.00
2023-03-30T17:09:23.451Z,14.00
2023-03-30T17:11:52.219Z,14.00
2023-03-30T17:14:20.910Z,14.00
2023-03-30T17:16:48.454Z,14.00
2023-03-30T17:19:16.072Z,14.00
2023-03-30T17:21:43.947Z,14.00
2023-03-30T17:24:12.783Z,13.90
2023-03-30T17:26:40.700Z,13.90
2023-03-30T17:29:09.145Z,13.80
2023-03-30T17:31:38.296Z,13.80
2023-03-30T17:34:07.207Z,13.70
2023-03-30T17:36:34.909Z,13.70
2023-03-30T17:39:04.943Z,13.60
2023-03-30T17:41:34.335Z,13.60
2023-03-30T17:44:01.816Z,13.50
2023-03-30T17:46:29.451Z,13.50
2023-03-30T17:48:58.791Z,13.50
2023-03-30T17:51:26.491Z,13.40
2023-03-30T17:53:54.082Z,13.40
2023-03-30T17:56:21.632Z,13.30
2023-03-30T17:58:49.589Z,13.30
2023-03-30T18:01:17.106Z,13.30
2023-03-30T18:03:45.139Z,13.20
2023-03-30T18:06:13.349Z,13.20
2023-03-30T18:08:40.995Z,13.10
2023-03-30T18:11:08.762Z,13.10
2023-03-30T18:13:37.027Z,13.00
2023-03-30T18:16:04.782Z,12.90
2023-03-30T18:18:32.555Z,12.80
2023-03-30T18:21:06.722Z,12.70
2023-03-30T18:23:35.025Z,12.60
2023-03-30T18:26:07.738Z,12.60
2023-03-30T18:28:39.344Z,12.40
2023-03-30T18:31:08.624Z,12.30
2023-03-30T18:33:36.288Z,12.20
2023-03-30T18:36:07.877Z,12.00
2023-03-30T18:38:35.870Z,11.90
2023-03-30T18:41:03.549Z,11.80
2023-03-30T18:43:31.076Z,11.80
2023-03-30T18:46:01.843Z,11.60
2023-03-30T18:48:30.519Z,11.60
2023-03-30T18:50:58.349Z,11.50
2023-03-30T18:53:27.985Z,11.50
2023-03-30T18:55:58.600Z,11.40
2023-03-30T18:58:28.594Z,11.40
2023-03-30T19:00:56.628Z,11.40
2023-03-30T19:03:27.210Z,11.30
2023-03-30T19:05:55.101Z,11.30
2023-03-30T19:08:24.986Z,11.30
2023-03-30T19:10:55.242Z,11.20
2023-03-30T19:13:24.128Z,11.20
2023-03-30T19:15:52.589Z,11.10
2023-03-30T19:18:20.971Z,11.00
2023-03-30T19:20:51.011Z,11.00
2023-03-30T19:23:21.695Z,10.90
2023-03-30T19:25:49.617Z,10.80
2023-03-30T19:28:17.532Z,10.80
2023-03-30T19:30:45.563Z,10.70
2023-03-30T19:33:16.882Z,10.80
2023-03-30T19:35:45.754Z,10.70
2023-03-30T19:38:14.375Z,10.70
2023-03-30T19:40:42.213Z,10.70
2023-03-30T19:43:10.240Z,10.60
2023-03-30T19:45:37.946Z,10.60
2023-03-30T19:48:05.925Z,10.50
2023-03-30T19:50:33.655Z,10.50
2023-03-30T19:53:01.270Z,10.50
2023-03-30T19:55:28.818Z,10.60
2023-03-30T19:57:56.269Z,10.50
2023-03-30T20:00:23.928Z,10.50
2023-03-30T20:02:53.306Z,10.40
2023-03-30T20:05:22.693Z,10.40
2023-03-30T20:07:50.601Z,10.40
2023-03-30T20:10:21.856Z,10.50
2023-03-30T20:12:50.135Z,10.50
2023-03-30T20:15:19.114Z,10.50
2023-03-30T20:17:46.750Z,10.50
2023-03-30T20:20:17.120Z,10.40
2023-03-30T20:22:44.979Z,10.50
2023-03-30T20:25:14.183Z,10.40
2023-03-30T20:27:41.856Z,10.40
2023-03-30T20:30:11.651Z,10.40
2023-03-30T20:32:39.627Z,10.30
2023-03-30T20:35:07.617Z,10.40
2023-03-30T20:37:35.216Z,10.40
2023-03-30T20:40:04.756Z,10.30
2023-03-30T20:42:32.968Z,10.30
2023-03-30T20:45:01.197Z,10.30
2023-03-30T20:47:30.934Z,10.30
2023-03-30T20:49:59.406Z,10.20
2023-03-30T20:52:27.482Z,10.20
2023-03-30T20:54:56.323Z,10.30
2023-03-30T20:57:24.621Z,10.20
2023-03-30T20:59:54.166Z,10.10
2023-03-30T21:02:22.049Z,10.10
2023-03-30T21:04:50.447Z,10.20
2023-03-30T21:07:18.312Z,10.20
2023-03-30T21:09:45.935Z,10.20
2023-03-30T21:12:13.357Z,10.10
2023-03-30T21:14:40.848Z,10.10
2023-03-30T21:17:08.347Z,10.10
2023-03-30T21:19:36.746Z,10.10
2023-03-30T21:22:04.840Z,10.10
2023-03-30T21:24:33.006Z,10.30
2023-03-30T21:27:00.585Z,10.20
2023-03-30T21:29:28.076Z,10.20
2023-03-30T21:31:57.784Z,10.30
2023-03-30T21:34:25.413Z,10.30
2023-03-30T21:36:53.223Z,10.20
2023-03-30T21:39:20.777Z,10.30
2023-03-30T21:41:48.276Z,10.30
2023-03-30T21:44:15.869Z,10.40
2023-03-30T21:46:43.289Z,10.40
2023-03-30T21:49:11.927Z,10.30
2023-03-30T21:51:39.395Z,10.30
2023-03-30T21:54:07.746Z,10.40
2023-03-30T21:56:35.465Z,10.30
2023-03-30T21:59:03.035Z,10.20
2023-03-30T22:01:30.635Z,10.20
2023-03-30T22:03:58.225Z,10.10
2023-03-30T22:06:25.937Z,10.00
2023-03-30T22:08:53.773Z,10.20
2023-03-30T22:11:24.021Z,10.10
2023-03-30T22:13:53.535Z,10.00
2023-03-30T22:16:32.238Z,10.10
2023-03-30T22:18:59.869Z,10.00
2023-03-30T22:21:34.499Z,10.00
2023-03-30T22:24:04.273Z,10.10
2023-03-30T22:26:32.245Z,10.00
2023-03-30T22:28:59.842Z,10.10
2023-03-30T22:31:27.807Z,10.10
2023-03-30T22:33:56.437Z,10.10
2023-03-30T22:36:26.377Z,10.10
2023-03-30T22:38:56.027Z,10.00
2023-03-30T22:41:24.445Z,10.10
2023-03-30T22:43:53.717Z,10.10
2023-03-30T22:46:22.299Z,10.00
2023-03-30T22:48:51.839Z,9.90
2023-03-30T22:51:28.392Z,9.80
2023-03-30T22:53:58.293Z,9.80
2023-03-30T22:56:27.412Z,9.90
2023-03-30T22:58:55.029Z,9.90
2023-03-30T23:01:22.701Z,10.00
2023-03-30T23:03:50.470Z,9.90
2023-03-30T23:06:19.207Z,9.80
2023-03-30T23:08:48.614Z,9.70
2023-03-30T23:11:16.985Z,9.80
2023-03-30T23:13:44.518Z,9.80
2023-03-30T23:16:11.968Z,9.70
2023-03-30T23:18:39.807Z,9.60
2023-03-30T23:21:11.025Z,9.60
2023-03-30T23:23:39.094Z,9.70
2023-03-30T23:26:09.683Z,9.60
2023-03-30T23:28:40.380Z,9.60
2023-03-30T23:31:16.626Z,9.80
2023-03-30T23:33:44.708Z,9.80
2023-03-30T23:36:19.212Z,9.80
2023-03-30T23:38:47.078Z,9.80
2023-03-30T23:41:19.435Z,9.70
2023-03-30T23:43:47.188Z,9.80
2023-03-30T23:46:15.532Z,9.70
2023-03-30T23:48:43.294Z,9.80
2023-03-30T23:51:10.906Z,9.80
2023-03-30T23:53:41.685Z,9.70
2023-03-30T23:56:13.227Z,9.70
2023-03-30T23:58:41.457Z,9.70
